createdAt,value
2022-10-23T00:01:35.402Z,11.58
2022-10-23T00:04:15.861Z,11.86
2022-10-23T00:06:44.442Z,12.06
2022-10-23T00:09:14.308Z,11.85
2022-10-23T00:11:42.301Z,11.83
2022-10-23T00:14:10.294Z,11.71
2022-10-23T00:16:37.864Z,12.03
2022-10-23T00:19:06.008Z,12.06
2022-10-23T00:21:33.523Z,12.07
2022-10-23T00:24:01.067Z,11.87
2022-10-23T00:26:28.607Z,11.87
2022-10-23T00:28:56.178Z,11.55
2022-10-23T00:31:25.268Z,11.61
2022-10-23T00:33:53.127Z,11.56
2022-10-23T00:36:21.476Z,11.55
2022-10-23T00:38:50.325Z,11.73
2022-10-23T00:41:25.543Z,11.84
2022-10-23T00:44:05.053Z,11.87
2022-10-23T00:46:33.547Z,11.72
2022-10-23T00:49:02.516Z,11.77
2022-10-23T00:51:36.030Z,11.92
2022-10-23T00:54:23.812Z,11.93
2022-10-23T00:56:55.987Z,11.64
2022-10-23T00:59:23.851Z,11.67
2022-10-23T01:01:52.075Z,11.96
2022-10-23T01:04:20.158Z,11.99
2022-10-23T01:07:08.658Z,12.02
2022-10-23T01:09:41.818Z,12.12
2022-10-23T01:12:19.717Z,12.03
2022-10-23T01:15:14.253Z,12.31
2022-10-23T01:17:55.564Z,12.37
2022-10-23T01:20:32.291Z,12.29
2022-10-23T01:23:02.451Z,12.21
2022-10-23T01:25:48.669Z,12.41
2022-10-23T01:28:25.574Z,12.29
2022-10-23T01:30:54.634Z,12.17
2022-10-23T01:33:37.806Z,12.04
2022-10-23T01:36:08.757Z,12.01
2022-10-23T01:38:41.862Z,11.68
2022-10-23T01:41:39.746Z,11.81
2022-10-23T01:44:33.140Z,11.83
2022-10-23T01:47:02.528Z,11.81
2022-10-23T01:49:33.390Z,11.74
2022-10-23T01:52:06.311Z,11.68
2022-10-23T01:54:38.505Z,11.77
2022-10-23T01:57:10.297Z,11.80
2022-10-23T01:59:47.739Z,11.75
2022-10-23T02:02:18.188Z,11.65
2022-10-23T02:04:55.050Z,11.44
2022-10-23T02:07:23.585Z,11.40
2022-10-23T02:09:51.313Z,11.30
2022-10-23T02:12:35.470Z,11.27
2022-10-23T02:15:14.264Z,10.85
2022-10-23T02:17:49.122Z,10.37
2022-10-23T02:20:22.499Z,10.50
2022-10-23T02:23:16.209Z,10.34
2022-10-23T02:25:53.824Z,10.27
2022-10-23T02:28:28.435Z,10.22
2022-10-23T02:31:00.745Z,9.86
2022-10-23T02:33:31.732Z,9.91
2022-10-23T02:35:59.309Z,9.55
2022-10-23T02:38:42.817Z,9.68
2022-10-23T02:41:16.453Z,9.62
2022-10-23T02:43:54.991Z,9.36
2022-10-23T02:46:35.682Z,9.49
2022-10-23T02:49:13.566Z,9.33
2022-10-23T02:51:54.474Z,9.25
2022-10-23T02:54:45.735Z,9.12
2022-10-23T02:57:26.518Z,9.06
2022-10-23T03:00:06.023Z,8.80
2022-10-23T03:02:40.998Z,8.80
2022-10-23T03:05:12.878Z,8.74
2022-10-23T03:07:41.310Z,8.77
2022-10-23T03:10:11.202Z,8.66
2022-10-23T03:12:39.869Z,8.91
2022-10-23T03:15:08.865Z,9.02
2022-10-23T03:17:36.997Z,9.00
2022-10-23T03:20:06.522Z,8.98
2022-10-23T03:22:34.609Z,8.60
2022-10-23T03:25:02.214Z,8.42
2022-10-23T03:27:32.195Z,8.47
2022-10-23T03:30:05.206Z,8.38
2022-10-23T03:32:34.566Z,8.34
2022-10-23T03:35:02.075Z,8.32
2022-10-23T03:37:29.678Z,8.19
2022-10-23T03:39:57.167Z,8.17
2022-10-23T03:42:24.744Z,8.20
2022-10-23T03:44:52.231Z,7.91
2022-10-23T03:47:19.731Z,7.91
2022-10-23T03:49:47.271Z,7.98
2022-10-23T03:52:14.907Z,7.72
2022-10-23T03:54:42.451Z,7.81
2022-10-23T03:57:12.489Z,7.85
2022-10-23T03:59:40.184Z,7.98
2022-10-23T04:02:08.312Z,8.04
2022-10-23T04:04:35.982Z,7.94
2022-10-23T04:07:03.522Z,8.11
2022-10-23T04:09:31.322Z,8.04
2022-10-23T04:11:58.819Z,8.09
2022-10-23T04:14:28.924Z,7.57
2022-10-23T04:16:56.407Z,7.18
2022-10-23T04:19:23.991Z,7.33
2022-10-23T04:21:51.447Z,7.17
2022-10-23T04:24:18.914Z,6.92
2022-10-23T04:26:46.477Z,7.25
2022-10-23T04:29:14.055Z,7.31
2022-10-23T04:31:41.514Z,7.32
2022-10-23T04:34:09.262Z,7.30
2022-10-23T04:36:36.964Z,7.36
2022-10-23T04:39:10.852Z,7.55
2022-10-23T04:41:39.065Z,7.53
2022-10-23T04:44:07.303Z,7.50
2022-10-23T04:46:38.435Z,7.14
2022-10-23T04:49:06.181Z,7.42
2022-10-23T04:51:42.648Z,7.13
2022-10-23T04:54:38.410Z,7.02
2022-10-23T04:57:24.136Z,7.12
2022-10-23T05:00:10.458Z,7.25
2022-10-23T05:02:48.997Z,7.16
2022-10-23T05:05:18.358Z,6.88
2022-10-23T05:08:22.771Z,7.02
2022-10-23T05:11:08.741Z,7.10
2022-10-23T05:13:44.245Z,6.92
2022-10-23T05:16:46.555Z,7.24
2022-10-23T05:19:30.954Z,7.42
2022-10-23T05:21:58.837Z,7.42
2022-10-23T05:24:30.666Z,7.42
2022-10-23T05:27:02.279Z,7.32
2022-10-23T05:29:32.330Z,7.45
2022-10-23T05:32:03.673Z,7.55
2022-10-23T05:34:35.230Z,7.63
2022-10-23T05:37:06.122Z,7.68
2022-10-23T05:39:37.655Z,7.51
2022-10-23T05:42:09.635Z,7.55
2022-10-23T05:44:38.759Z,7.45
2022-10-23T05:47:24.807Z,7.35
2022-10-23T05:50:15.594Z,7.60
2022-10-23T05:53:03.677Z,7.74
2022-10-23T05:55:57.138Z,7.82
2022-10-23T05:58:41.339Z,7.98
2022-10-23T06:01:20.436Z,8.24
2022-10-23T06:04:14.298Z,8.34
2022-10-23T06:07:00.686Z,8.49
2022-10-23T06:09:30.266Z,8.80
2022-10-23T06:12:01.972Z,8.89
2022-10-23T06:14:31.851Z,8.85
2022-10-23T06:16:59.642Z,8.33
2022-10-23T06:19:27.632Z,8.79
2022-10-23T06:21:57.788Z,9.18
2022-10-23T06:24:36.693Z,9.44
2022-10-23T06:27:10.030Z,9.55
2022-10-23T06:29:43.228Z,9.84
2022-10-23T06:32:10.750Z,9.96
2022-10-23T06:34:41.726Z,10.19
2022-10-23T06:37:09.992Z,10.45
2022-10-23T06:40:07.841Z,10.73
2022-10-23T06:43:08.645Z,10.81
2022-10-23T06:45:54.425Z,11.36
2022-10-23T06:48:45.191Z,11.50
2022-10-23T06:51:19.813Z,11.64
2022-10-23T06:53:47.453Z,11.84
2022-10-23T06:56:41.021Z,12.21
2022-10-23T06:59:09.935Z,12.48
2022-10-23T07:01:38.749Z,12.64
2022-10-23T07:04:07.362Z,13.06
2022-10-23T07:06:35.944Z,13.80
2022-10-23T07:09:03.677Z,14.73
2022-10-23T07:11:50.337Z,15.67
2022-10-23T07:14:19.036Z,15.93
2022-10-23T07:16:46.773Z,16.97
2022-10-23T07:19:14.350Z,17.49
2022-10-23T07:21:55.373Z,17.89
2022-10-23T07:24:46.067Z,18.54
2022-10-23T07:27:23.895Z,18.96
2022-10-23T07:29:56.580Z,19.33
2022-10-23T07:32:24.765Z,18.75
2022-10-23T07:35:18.723Z,20.19
2022-10-23T07:38:08.289Z,20.39
2022-10-23T07:40:41.219Z,19.92
2022-10-23T07:43:11.128Z,19.86
2022-10-23T07:45:38.698Z,20.05
2022-10-23T07:48:16.516Z,21.54
2022-10-23T07:51:01.523Z,21.25
2022-10-23T07:53:29.574Z,21.52
2022-10-23T07:56:13.998Z,22.14
2022-10-23T07:59:00.148Z,23.90
2022-10-23T08:01:32.514Z,23.88
2022-10-23T08:04:01.159Z,22.86
2022-10-23T08:06:29.871Z,23.31
2022-10-23T08:09:00.983Z,24.78
2022-10-23T08:11:35.420Z,25.36
2022-10-23T08:14:05.948Z,25.11
2022-10-23T08:16:38.427Z,22.60
2022-10-23T08:19:18.143Z,24.80
2022-10-23T08:21:47.549Z,24.49
2022-10-23T08:24:15.579Z,23.82
2022-10-23T08:26:45.827Z,24.31
2022-10-23T08:29:14.618Z,24.14
2022-10-23T08:31:42.413Z,23.64
2022-10-23T08:34:13.881Z,24.65
2022-10-23T08:36:42.456Z,24.95
2022-10-23T08:39:10.138Z,25.50
2022-10-23T08:41:47.697Z,26.59
2022-10-23T08:44:54.126Z,28.94
2022-10-23T08:47:40.551Z,28.10
2022-10-23T08:50:20.134Z,27.57
2022-10-23T08:52:57.179Z,27.29
2022-10-23T08:55:33.516Z,28.01
2022-10-23T08:58:06.719Z,28.47
2022-10-23T09:00:34.550Z,28.82
2022-10-23T09:03:05.308Z,29.61
2022-10-23T09:06:15.320Z,31.20
2022-10-23T09:08:59.203Z,29.73
2022-10-23T09:11:32.900Z,26.20
2022-10-23T09:14:00.280Z,27.45
2022-10-23T09:16:53.535Z,29.01
2022-10-23T09:19:27.295Z,30.59
2022-10-23T09:21:56.385Z,31.40
2022-10-23T09:24:26.326Z,29.33
2022-10-23T09:26:54.869Z,28.51
2022-10-23T09:29:35.879Z,30.15
2022-10-23T09:32:06.027Z,32.23
2022-10-23T09:34:35.077Z,27.46
2022-10-23T09:37:21.385Z,31.41
2022-10-23T09:39:49.485Z,30.99
2022-10-23T09:42:25.669Z,32.46
2022-10-23T09:44:55.214Z,31.59
2022-10-23T09:47:25.074Z,32.15
2022-10-23T09:49:54.764Z,31.21
2022-10-23T09:52:34.958Z,31.48
2022-10-23T09:55:18.338Z,32.38
2022-10-23T09:57:47.068Z,31.40
2022-10-23T10:00:28.180Z,29.89
2022-10-23T10:03:19.441Z,31.62
2022-10-23T10:06:02.798Z,32.36
2022-10-23T10:08:39.329Z,32.65
2022-10-23T10:11:23.519Z,31.26
2022-10-23T10:14:28.417Z,31.89
2022-10-23T10:17:22.995Z,32.90
2022-10-23T10:20:18.916Z,34.33
2022-10-23T10:23:01.604Z,30.86
2022-10-23T10:25:51.286Z,33.49
2022-10-23T10:28:44.034Z,32.55
2022-10-23T10:31:39.586Z,33.05
2022-10-23T10:34:24.940Z,31.77
2022-10-23T10:37:20.177Z,31.19
2022-10-23T10:40:08.806Z,30.77
2022-10-23T10:42:59.053Z,31.25
2022-10-23T10:45:37.646Z,30.22
2022-10-23T10:48:17.145Z,31.01
2022-10-23T10:51:06.640Z,31.81
2022-10-23T10:54:25.064Z,32.17
2022-10-23T10:56:52.743Z,32.95
2022-10-23T10:59:31.062Z,33.31
2022-10-23T11:02:27.107Z,31.85
2022-10-23T11:05:02.320Z,32.61
2022-10-23T11:07:37.335Z,33.66
2022-10-23T11:10:15.418Z,33.55
2022-10-23T11:12:45.968Z,32.31
2022-10-23T11:15:22.516Z,32.56
2022-10-23T11:17:59.986Z,33.43
2022-10-23T11:20:55.984Z,30.90
2022-10-23T11:23:50.250Z,32.34
2022-10-23T11:26:52.070Z,32.61
2022-10-23T11:29:47.306Z,34.02
2022-10-23T11:32:29.775Z,33.77
2022-10-23T11:35:00.328Z,30.54
2022-10-23T11:37:27.939Z,30.08
2022-10-23T11:39:59.659Z,30.82
2022-10-23T11:42:33.461Z,32.21
2022-10-23T11:45:02.189Z,30.98
2022-10-23T11:47:40.162Z,31.35
2022-10-23T11:50:08.102Z,28.89
2022-10-23T11:53:09.297Z,28.77
2022-10-23T11:55:39.671Z,25.57
2022-10-23T11:58:07.178Z,25.73
2022-10-23T12:00:49.682Z,24.39
2022-10-23T12:03:24.512Z,25.77
2022-10-23T12:06:03.044Z,26.37
2022-10-23T12:08:34.904Z,25.20
2022-10-23T12:11:02.915Z,26.10
2022-10-23T12:13:36.464Z,24.94
2022-10-23T12:16:07.618Z,24.30
2022-10-23T12:18:49.881Z,23.10
2022-10-23T12:21:30.422Z,23.02
2022-10-23T12:24:32.039Z,23.70
2022-10-23T12:27:20.056Z,21.85
2022-10-23T12:30:13.971Z,22.15
2022-10-23T12:32:59.949Z,24.12
2022-10-23T12:35:48.927Z,23.79
2022-10-23T12:38:21.721Z,23.15
2022-10-23T12:41:00.790Z,24.88
2022-10-23T12:43:34.528Z,24.84
2022-10-23T12:46:05.235Z,23.77
2022-10-23T12:48:33.473Z,23.72
2022-10-23T12:51:01.164Z,23.35
2022-10-23T12:53:28.830Z,23.35
2022-10-23T12:58:32.023Z,22.42
2022-10-23T13:01:05.574Z,21.87
2022-10-23T13:03:34.251Z,21.55
2022-10-23T13:06:03.164Z,21.06
2022-10-23T13:08:40.608Z,20.77
2022-10-23T13:11:28.177Z,20.46
2022-10-23T13:13:58.744Z,20.08
2022-10-23T13:16:27.101Z,20.19
2022-10-23T13:18:54.727Z,20.01
2022-10-23T13:21:25.321Z,20.13
2022-10-23T13:23:53.841Z,19.91
2022-10-23T13:26:30.534Z,19.87
2022-10-23T13:28:59.507Z,20.11
2022-10-23T13:31:31.382Z,19.72
2022-10-23T13:33:58.932Z,19.85
2022-10-23T13:36:34.640Z,19.92
2022-10-23T13:39:04.239Z,19.93
2022-10-23T13:41:47.683Z,19.77
2022-10-23T13:44:20.289Z,19.19
2022-10-23T13:46:48.525Z,18.98
2022-10-23T13:49:16.295Z,18.98
2022-10-23T13:51:54.827Z,19.05
2022-10-23T13:54:29.016Z,19.23
2022-10-23T13:56:57.236Z,18.85
2022-10-23T13:59:24.966Z,18.71
2022-10-23T14:01:52.823Z,18.55
2022-10-23T14:04:21.057Z,18.89
2022-10-23T14:06:48.580Z,18.74
2022-10-23T14:09:18.420Z,18.81
2022-10-23T14:11:46.097Z,18.65
2022-10-23T14:14:13.817Z,18.57
2022-10-23T14:16:41.416Z,18.51
2022-10-23T14:19:09.485Z,17.92
2022-10-23T14:21:37.152Z,17.88
2022-10-23T14:24:04.851Z,17.94
2022-10-23T14:26:32.908Z,17.69
2022-10-23T14:29:04.202Z,18.02
2022-10-23T14:31:36.021Z,18.15
2022-10-23T14:34:03.619Z,18.34
2022-10-23T14:36:38.835Z,18.23
2022-10-23T14:39:18.216Z,18.08
2022-10-23T14:41:45.980Z,18.13
2022-10-23T14:44:13.434Z,17.96
2022-10-23T14:46:41.026Z,17.50
2022-10-23T14:49:08.459Z,17.78
2022-10-23T14:51:36.427Z,17.85
2022-10-23T14:54:05.599Z,18.19
2022-10-23T14:56:36.307Z,18.26
2022-10-23T14:59:04.075Z,18.17
2022-10-23T15:01:38.441Z,18.23
2022-10-23T15:04:07.063Z,18.11
2022-10-23T15:06:35.313Z,18.22
2022-10-23T15:09:04.127Z,18.05
2022-10-23T15:11:32.671Z,17.87
2022-10-23T15:14:06.325Z,18.05
2022-10-23T15:16:41.366Z,18.17
2022-10-23T15:19:18.626Z,18.17
2022-10-23T15:21:48.054Z,18.12
2022-10-23T15:24:17.330Z,18.18
2022-10-23T15:26:45.002Z,18.21
2022-10-23T15:29:14.862Z,18.20
2022-10-23T15:31:46.435Z,18.16
2022-10-23T15:34:17.758Z,18.05
2022-10-23T15:36:47.054Z,17.96
2022-10-23T15:39:19.254Z,17.93
2022-10-23T15:41:47.819Z,18.02
2022-10-23T15:44:18.279Z,18.11
2022-10-23T15:46:46.632Z,18.04
2022-10-23T15:49:14.887Z,18.09
2022-10-23T15:51:43.449Z,17.96
2022-10-23T15:54:17.050Z,18.11
2022-10-23T15:56:46.320Z,18.26
2022-10-23T15:59:15.299Z,18.24
2022-10-23T16:01:43.175Z,18.29
2022-10-23T16:04:11.027Z,18.25
2022-10-23T16:06:38.985Z,18.10
2022-10-23T16:09:06.608Z,18.28
2022-10-23T16:11:37.173Z,18.27
2022-10-23T16:14:05.945Z,18.11
2022-10-23T16:16:34.449Z,17.98
2022-10-23T16:19:03.720Z,18.05
2022-10-23T16:21:34.311Z,18.07
2022-10-23T16:24:05.054Z,18.22
2022-10-23T16:26:33.905Z,18.30
2022-10-23T16:29:04.437Z,18.17
2022-10-23T16:31:32.998Z,18.19
2022-10-23T16:34:05.472Z,18.14
2022-10-23T16:36:34.111Z,18.22
2022-10-23T16:39:25.326Z,18.13
2022-10-23T16:42:12.764Z,18.05
2022-10-23T16:45:00.083Z,18.14
2022-10-23T16:47:31.112Z,17.86
2022-10-23T16:49:58.939Z,18.13
2022-10-23T16:52:27.541Z,18.33
2022-10-23T16:54:55.319Z,18.18
2022-10-23T16:57:23.122Z,18.28
2022-10-23T16:59:50.881Z,18.23
2022-10-23T17:02:18.749Z,18.33
2022-10-23T17:04:46.696Z,18.31
2022-10-23T17:07:14.335Z,18.21
2022-10-23T17:09:46.555Z,18.51
2022-10-23T17:12:15.249Z,18.14
2022-10-23T17:14:43.207Z,18.26
2022-10-23T17:17:11.075Z,17.78
2022-10-23T17:19:45.576Z,18.13
2022-10-23T17:22:15.262Z,17.87
2022-10-23T17:24:45.289Z,17.94
2022-10-23T17:27:15.158Z,17.94
2022-10-23T17:29:42.825Z,17.99
2022-10-23T17:32:10.809Z,18.22
2022-10-23T17:34:38.618Z,18.15
2022-10-23T17:37:06.532Z,17.63
2022-10-23T17:39:34.334Z,17.95
2022-10-23T17:42:02.258Z,17.79
2022-10-23T17:44:29.972Z,17.90
2022-10-23T17:46:57.968Z,18.12
2022-10-23T17:49:25.914Z,17.87
2022-10-23T17:51:56.229Z,17.68
2022-10-23T17:54:26.074Z,17.52
2022-10-23T17:56:54.349Z,17.82
2022-10-23T17:59:22.631Z,17.79
2022-10-23T18:01:50.862Z,17.75
2022-10-23T18:04:20.478Z,17.99
2022-10-23T18:06:51.208Z,17.89
2022-10-23T18:09:20.609Z,17.83
2022-10-23T18:11:48.788Z,17.96
2022-10-23T18:14:19.017Z,17.90
2022-10-23T18:16:46.784Z,17.99
2022-10-23T18:19:18.095Z,17.88
2022-10-23T18:21:46.728Z,17.73
2022-10-23T18:24:19.138Z,17.62
2022-10-23T18:26:48.658Z,17.21
2022-10-23T18:29:17.502Z,17.61
2022-10-23T18:31:45.920Z,17.36
2022-10-23T18:34:21.948Z,17.37
2022-10-23T18:36:52.216Z,17.37
2022-10-23T18:39:24.162Z,17.45
2022-10-23T18:41:57.284Z,17.73
2022-10-23T18:44:28.931Z,17.48
2022-10-23T18:46:58.690Z,17.49
2022-10-23T18:49:27.312Z,17.59
2022-10-23T18:51:55.408Z,17.69
2022-10-23T18:54:23.330Z,17.80
2022-10-23T18:56:51.150Z,17.78
2022-10-23T18:59:20.704Z,17.68
2022-10-23T19:01:49.318Z,17.60
2022-10-23T19:04:18.454Z,17.48
2022-10-23T19:06:47.888Z,17.67
2022-10-23T19:09:16.404Z,17.49
2022-10-23T19:11:46.024Z,17.45
2022-10-23T19:14:14.903Z,17.18
2022-10-23T19:16:51.652Z,17.50
2022-10-23T19:19:22.677Z,17.59
2022-10-23T19:21:52.130Z,17.38
2022-10-23T19:24:24.230Z,17.53
2022-10-23T19:26:52.731Z,17.51
2022-10-23T19:29:26.465Z,17.47
2022-10-23T19:31:54.774Z,17.51
2022-10-23T19:34:25.038Z,17.51
2022-10-23T19:36:54.629Z,17.35
2022-10-23T19:39:22.821Z,17.45
2022-10-23T19:41:51.683Z,17.42
2022-10-23T19:44:22.672Z,17.41
2022-10-23T19:46:50.905Z,17.32
2022-10-23T19:49:19.048Z,17.46
2022-10-23T19:51:50.895Z,16.85
2022-10-23T19:54:21.278Z,17.22
2022-10-23T19:56:49.756Z,17.32
2022-10-23T19:59:18.452Z,17.28
2022-10-23T20:01:48.001Z,17.49
2022-10-23T20:04:18.565Z,17.33
2022-10-23T20:06:46.359Z,17.55
2022-10-23T20:09:14.203Z,17.55
2022-10-23T20:11:43.542Z,17.59
2022-10-23T20:14:12.820Z,17.52
2022-10-23T20:16:40.890Z,17.41
2022-10-23T20:19:10.270Z,17.58
2022-10-23T20:21:39.926Z,17.54
2022-10-23T20:24:09.732Z,17.50
2022-10-23T20:26:46.396Z,17.40
2022-10-23T20:29:15.139Z,17.66
2022-10-23T20:31:43.561Z,17.21
2022-10-23T20:34:11.612Z,17.21
2022-10-23T20:36:46.780Z,17.36
2022-10-23T20:39:19.213Z,17.44
2022-10-23T20:41:47.781Z,17.37
2022-10-23T20:46:50.211Z,17.25
2022-10-23T20:49:18.946Z,17.18
2022-10-23T20:51:54.891Z,17.13
2022-10-23T20:54:25.380Z,17.22
2022-10-23T20:56:52.950Z,17.01
2022-10-23T20:59:20.620Z,16.74
2022-10-23T21:01:49.987Z,16.92
2022-10-23T21:04:20.128Z,16.89
2022-10-23T21:07:08.882Z,16.79
2022-10-23T21:09:38.009Z,17.08
2022-10-23T21:12:06.683Z,17.16
2022-10-23T21:14:35.008Z,17.35
2022-10-23T21:17:03.053Z,17.45
2022-10-23T21:19:30.669Z,17.31
2022-10-23T21:21:58.118Z,17.23
2022-10-23T21:24:25.715Z,17.19
2022-10-23T21:26:53.179Z,17.30
2022-10-23T21:29:20.959Z,17.53
2022-10-23T21:31:56.314Z,17.51
2022-10-23T21:34:25.201Z,17.04
2022-10-23T21:37:13.449Z,17.35
2022-10-23T21:39:41.296Z,17.48
2022-10-23T21:42:09.099Z,17.30
2022-10-23T21:44:36.587Z,17.27
2022-10-23T21:47:04.267Z,17.37
2022-10-23T21:49:32.006Z,17.15
2022-10-23T21:51:59.554Z,17.21
2022-10-23T21:54:27.158Z,17.22
2022-10-23T21:56:54.895Z,17.00
2022-10-23T21:59:26.683Z,17.18
2022-10-23T22:01:56.723Z,17.20
2022-10-23T22:04:24.303Z,16.78
2022-10-23T22:06:55.362Z,16.89
2022-10-23T22:09:23.185Z,16.86
2022-10-23T22:11:52.982Z,17.09
2022-10-23T22:14:21.352Z,16.88
2022-10-23T22:16:49.314Z,16.87
2022-10-23T22:19:18.815Z,17.12
2022-10-23T22:21:47.784Z,17.15
2022-10-23T22:24:17.634Z,16.88
2022-10-23T22:26:48.530Z,17.30
2022-10-23T22:29:20.036Z,17.39
2022-10-23T22:31:49.851Z,17.62
2022-10-23T22:34:48.307Z,17.49
2022-10-23T22:37:15.103Z,17.53
2022-10-23T22:39:43.872Z,17.58
2022-10-23T22:42:11.630Z,17.73
2022-10-23T22:44:39.169Z,17.76
2022-10-23T22:47:07.157Z,17.42
2022-10-23T22:49:34.762Z,17.05
2022-10-23T22:52:02.364Z,17.26
2022-10-23T22:54:31.381Z,17.16
2022-10-23T22:56:59.043Z,17.18
2022-10-23T22:59:26.593Z,17.25
2022-10-23T23:01:54.076Z,16.99
2022-10-23T23:04:38.271Z,17.27
2022-10-23T23:07:10.986Z,17.01
2022-10-23T23:09:40.678Z,16.88
2022-10-23T23:12:10.663Z,16.98
2022-10-23T23:14:38.317Z,16.96
2022-10-23T23:17:07.481Z,17.11
2022-10-23T23:19:35.427Z,17.22
2022-10-23T23:22:03.590Z,16.78
2022-10-23T23:24:32.082Z,17.11
2022-10-23T23:26:59.550Z,17.15
2022-10-23T23:29:28.374Z,16.77
2022-10-23T23:31:55.831Z,17.15
2022-10-23T23:34:23.412Z,16.95
2022-10-23T23:36:50.996Z,16.47
2022-10-23T23:39:18.575Z,16.65
2022-10-23T23:41:46.088Z,16.62
2022-10-23T23:44:13.560Z,16.66
2022-10-23T23:46:40.990Z,16.72
2022-10-23T23:49:08.539Z,16.87
2022-10-23T23:51:37.220Z,17.01
2022-10-23T23:54:04.830Z,17.09
2022-10-23T23:56:32.937Z,16.77
2022-10-23T23:59:00.394Z,16.98
